createdAt,value
2023-02-14T00:00:03.413Z,84.42
2023-02-14T00:05:05.381Z,86.41
2023-02-14T00:10:07.890Z,84.90
2023-02-14T00:15:22.552Z,83.74
2023-02-14T00:20:24.915Z,83.79
2023-02-14T00:25:26.616Z,82.38
2023-02-14T00:30:29.860Z,82.22
2023-02-14T00:35:31.638Z,80.63
2023-02-14T00:40:33.297Z,80.54
2023-02-14T00:45:34.949Z,81.36
2023-02-14T00:50:36.619Z,81.20
2023-02-14T00:55:38.402Z,83.15
2023-02-14T01:00:40.086Z,82.94
2023-02-14T01:05:41.852Z,81.85
2023-02-14T01:10:43.970Z,81.82
2023-02-14T01:15:51.193Z,81.42
2023-02-14T01:20:52.897Z,80.98
2023-02-14T01:25:54.571Z,83.93
2023-02-14T01:30:56.281Z,84.98
2023-02-14T01:35:58.486Z,85.53
2023-02-14T01:41:00.514Z,83.86
2023-02-14T01:46:02.473Z,82.55
2023-02-14T01:51:04.295Z,81.27
2023-02-14T01:56:18.672Z,81.74
2023-02-14T02:01:21.214Z,83.29
2023-02-14T02:06:29.518Z,81.92
2023-02-14T02:11:31.246Z,81.85
2023-02-14T02:16:54.309Z,81.61
2023-02-14T02:22:20.771Z,81.91
2023-02-14T02:27:34.362Z,81.53
2023-02-14T02:33:08.026Z,81.37
2023-02-14T02:38:45.148Z,81.16
2023-02-14T02:43:49.854Z,81.44
2023-02-14T02:49:05.872Z,81.06
2023-02-14T02:54:18.216Z,80.83
2023-02-14T02:59:27.917Z,80.41
2023-02-14T03:04:50.696Z,81.22
2023-02-14T03:09:53.738Z,80.92
2023-02-14T03:15:22.745Z,81.09
2023-02-14T03:20:35.967Z,80.51
2023-02-14T03:25:47.689Z,80.52
2023-02-14T03:30:58.139Z,80.48
2023-02-14T03:36:09.379Z,80.76
2023-02-14T03:41:26.253Z,80.43
2023-02-14T03:46:32.531Z,80.86
2023-02-14T03:51:35.906Z,80.81
2023-02-14T03:56:46.461Z,80.36
2023-02-14T04:02:01.547Z,81.09
2023-02-14T04:07:19.095Z,80.48
2023-02-14T04:12:29.401Z,80.54
2023-02-14T04:17:57.590Z,79.68
2023-02-14T04:22:59.335Z,79.58
2023-02-14T04:28:01.036Z,79.19
2023-02-14T04:33:04.336Z,79.79
2023-02-14T04:38:06.934Z,79.57
2023-02-14T04:43:08.670Z,80.41
2023-02-14T04:48:10.516Z,80.12
2023-02-14T04:53:12.183Z,80.81
2023-02-14T04:58:13.846Z,80.52
2023-02-14T05:03:15.489Z,83.31
2023-02-14T05:08:17.157Z,82.63
2023-02-14T05:13:18.885Z,80.98
2023-02-14T05:18:20.622Z,80.65
2023-02-14T05:23:22.450Z,81.26
2023-02-14T05:28:24.743Z,83.14
2023-02-14T05:33:26.710Z,81.06
2023-02-14T05:38:29.526Z,82.22
2023-02-14T05:43:31.504Z,81.14
2023-02-14T05:48:33.934Z,80.96
2023-02-14T05:53:36.096Z,80.21
2023-02-14T05:58:37.754Z,80.09
2023-02-14T06:03:39.405Z,79.51
2023-02-14T06:08:41.053Z,79.23
2023-02-14T06:13:42.716Z,79.30
2023-02-14T06:18:44.516Z,79.10
2023-02-14T06:23:46.150Z,79.18
2023-02-14T06:29:02.243Z,79.25
2023-02-14T06:34:03.913Z,79.61
2023-02-14T06:39:05.609Z,79.40
2023-02-14T06:44:07.408Z,79.17
2023-02-14T06:49:10.265Z,79.48
2023-02-14T06:54:12.016Z,79.34
2023-02-14T06:59:13.800Z,79.70
2023-02-14T07:04:15.857Z,79.84
2023-02-14T07:09:18.425Z,79.74
2023-02-14T07:14:20.152Z,79.96
2023-02-14T07:19:21.964Z,81.08
2023-02-14T07:24:23.763Z,81.30
2023-02-14T07:29:25.589Z,80.74
2023-02-14T07:34:27.437Z,81.37
2023-02-14T07:39:29.956Z,81.86
2023-02-14T07:44:31.659Z,81.79
2023-02-14T07:49:33.456Z,82.07
2023-02-14T07:54:35.565Z,82.44
2023-02-14T07:59:37.299Z,83.26
2023-02-14T08:04:38.973Z,82.81
2023-02-14T08:09:40.762Z,83.48
2023-02-14T08:14:43.530Z,84.04
2023-02-14T08:19:45.210Z,83.50
2023-02-14T08:24:47.230Z,84.56
2023-02-14T08:29:50.328Z,84.93
2023-02-14T08:34:52.656Z,84.97
2023-02-14T08:39:57.789Z,84.45
2023-02-14T08:44:59.553Z,84.86
2023-02-14T08:50:02.761Z,84.62
2023-02-14T08:55:05.494Z,85.41
2023-02-14T09:00:09.226Z,85.82
2023-02-14T09:05:11.077Z,85.77
2023-02-14T09:10:13.230Z,85.81
2023-02-14T09:15:15.073Z,86.20
2023-02-14T09:20:17.003Z,85.92
2023-02-14T09:25:18.795Z,85.45
2023-02-14T09:30:20.620Z,85.30
2023-02-14T09:35:40.844Z,85.72
2023-02-14T09:40:42.926Z,85.55
2023-02-14T09:45:51.495Z,84.94
2023-02-14T09:50:56.485Z,85.60
2023-02-14T09:56:14.286Z,85.65
2023-02-14T10:01:24.262Z,84.93
2023-02-14T10:11:24.800Z,83.67
2023-02-14T10:16:32.672Z,84.66
2023-02-14T10:21:42.665Z,84.62
2023-02-14T10:26:47.446Z,83.98
2023-02-14T10:32:00.844Z,83.15
2023-02-14T10:37:08.242Z,82.03
2023-02-14T10:42:23.312Z,83.29
2023-02-14T10:47:40.236Z,82.97
2023-02-14T10:53:19.065Z,83.21
2023-02-14T10:58:24.517Z,82.66
2023-02-14T11:03:28.448Z,78.71
2023-02-14T11:08:36.794Z,81.69
2023-02-14T11:13:41.841Z,78.97
2023-02-14T11:18:43.616Z,78.38
2023-02-14T11:23:48.513Z,80.77
2023-02-14T11:29:14.983Z,80.38
2023-02-14T11:34:32.023Z,77.88
2023-02-14T11:39:35.282Z,76.90
2023-02-14T11:44:43.959Z,80.26
2023-02-14T11:50:01.332Z,80.12
2023-02-14T11:55:03.024Z,76.09
2023-02-14T12:00:16.932Z,75.82
2023-02-14T12:05:18.691Z,75.79
2023-02-14T12:10:27.860Z,76.69
2023-02-14T12:15:42.802Z,77.76
2023-02-14T12:20:49.483Z,74.23
2023-02-14T12:25:59.019Z,77.78
2023-02-14T12:31:01.027Z,77.16
2023-02-14T12:36:02.866Z,78.06
2023-02-14T12:41:04.719Z,75.58
2023-02-14T12:46:34.273Z,76.68
2023-02-14T12:52:10.142Z,75.90
2023-02-14T12:57:14.822Z,75.72
2023-02-14T13:02:58.404Z,71.82
2023-02-14T13:08:38.426Z,74.52
2023-02-14T13:14:04.746Z,69.66
2023-02-14T13:19:33.793Z,73.33
2023-02-14T13:24:44.891Z,73.07
2023-02-14T13:29:56.574Z,72.80
2023-02-14T13:34:58.871Z,72.70
2023-02-14T13:40:08.287Z,72.27
2023-02-14T13:45:30.425Z,72.76
2023-02-14T13:50:37.201Z,71.52
2023-02-14T13:55:44.305Z,69.27
2023-02-14T14:00:50.853Z,71.48
2023-02-14T14:06:10.813Z,70.34
2023-02-14T14:11:35.071Z,70.47
2023-02-14T14:16:38.446Z,69.76
2023-02-14T14:21:45.901Z,64.02
2023-02-14T14:27:15.561Z,64.19
2023-02-14T14:32:21.588Z,64.33
2023-02-14T14:37:29.181Z,65.15
2023-02-14T14:42:36.939Z,65.53
2023-02-14T14:47:43.505Z,67.77
2023-02-14T14:52:54.491Z,66.93
2023-02-14T14:58:04.902Z,68.87
2023-02-14T15:03:12.321Z,69.79
2023-02-14T15:08:20.218Z,69.61
2023-02-14T15:13:57.574Z,71.23
2023-02-14T15:19:12.937Z,71.38
2023-02-14T15:24:17.498Z,71.66
2023-02-14T15:29:22.986Z,70.43
2023-02-14T15:34:36.206Z,72.11
2023-02-14T15:39:50.508Z,73.61
2023-02-14T15:45:22.595Z,76.16
2023-02-14T15:50:28.048Z,73.57
2023-02-14T15:55:31.100Z,74.75
2023-02-14T16:00:34.066Z,75.88
2023-02-14T16:05:35.934Z,75.40
2023-02-14T16:10:39.184Z,75.61
2023-02-14T16:16:00.260Z,76.51
2023-02-14T16:21:22.025Z,77.37
2023-02-14T16:26:23.949Z,77.97
2023-02-14T16:31:25.801Z,78.11
2023-02-14T16:36:33.108Z,78.65
2023-02-14T16:41:35.283Z,78.71
2023-02-14T16:46:37.695Z,79.35
2023-02-14T16:51:43.414Z,79.47
2023-02-14T16:56:59.105Z,79.42
2023-02-14T17:02:02.686Z,79.75
2023-02-14T17:07:06.982Z,80.02
2023-02-14T17:12:16.540Z,79.87
2023-02-14T17:17:20.023Z,79.93
2023-02-14T17:22:22.469Z,80.28
2023-02-14T17:27:24.823Z,80.04
2023-02-14T17:32:28.222Z,80.13
2023-02-14T17:37:31.870Z,80.45
2023-02-14T17:42:36.511Z,80.57
2023-02-14T17:47:40.180Z,80.47
2023-02-14T17:52:43.268Z,80.66
2023-02-14T17:57:45.279Z,80.76
2023-02-14T18:02:47.904Z,81.13
2023-02-14T18:07:52.501Z,80.73
2023-02-14T18:12:56.027Z,81.69
2023-02-14T18:17:58.546Z,82.65
2023-02-14T18:23:02.774Z,81.94
2023-02-14T18:28:05.873Z,82.35
2023-02-14T18:33:08.301Z,83.18
2023-02-14T18:38:11.466Z,82.80
2023-02-14T18:43:15.184Z,83.13
2023-02-14T18:48:19.720Z,83.16
2023-02-14T18:53:23.917Z,82.25
2023-02-14T18:58:26.476Z,82.58
2023-02-14T19:03:29.432Z,82.93
2023-02-14T19:08:37.155Z,83.22
2023-02-14T19:13:39.599Z,82.62
2023-02-14T19:23:58.570Z,82.10
2023-02-14T19:29:05.275Z,82.22
2023-02-14T19:34:09.879Z,82.13
2023-02-14T19:39:18.138Z,82.64
2023-02-14T19:44:24.994Z,82.16
2023-02-14T19:49:29.237Z,82.06
2023-02-14T19:54:32.867Z,82.10
2023-02-14T19:59:35.036Z,81.86
2023-02-14T20:04:38.783Z,82.22
2023-02-14T20:09:43.564Z,82.32
2023-02-14T20:14:51.352Z,81.44
2023-02-14T20:19:54.612Z,81.66
2023-02-14T20:25:00.250Z,81.14
2023-02-14T20:30:08.125Z,81.78
2023-02-14T20:35:11.009Z,82.23
2023-02-14T20:40:14.574Z,82.32
2023-02-14T20:45:17.456Z,82.08
2023-02-14T20:50:20.842Z,81.83
2023-02-14T20:55:23.578Z,81.70
2023-02-14T21:00:26.289Z,82.05
2023-02-14T21:05:29.477Z,82.16
2023-02-14T21:10:32.457Z,81.92
2023-02-14T21:15:35.273Z,81.40
2023-02-14T21:20:38.261Z,82.16
2023-02-14T21:25:41.671Z,81.92
2023-02-14T21:30:44.710Z,81.74
2023-02-14T21:35:47.370Z,81.16
2023-02-14T21:41:02.554Z,82.49
2023-02-14T21:46:06.980Z,83.33
2023-02-14T21:51:11.232Z,82.92
2023-02-14T21:56:18.096Z,82.91
2023-02-14T22:01:32.340Z,82.90
2023-02-14T22:06:35.333Z,82.16
2023-02-14T22:11:37.097Z,81.71
2023-02-14T22:16:39.106Z,81.90
2023-02-14T22:21:41.390Z,81.91
2023-02-14T22:26:43.226Z,81.77
2023-02-14T22:31:45.055Z,81.80
2023-02-14T22:36:46.942Z,81.78
2023-02-14T22:41:48.567Z,81.66
2023-02-14T22:46:50.348Z,80.59
2023-02-14T22:51:52.040Z,80.93
2023-02-14T22:56:53.664Z,80.69
2023-02-14T23:01:55.407Z,80.39
2023-02-14T23:06:57.245Z,80.27
2023-02-14T23:11:58.934Z,80.44
2023-02-14T23:17:19.070Z,80.68
2023-02-14T23:22:26.563Z,80.92
2023-02-14T23:27:37.079Z,80.60
2023-02-14T23:32:38.844Z,80.50
2023-02-14T23:37:41.030Z,80.34
2023-02-14T23:42:42.744Z,80.66
2023-02-14T23:47:44.424Z,80.57
2023-02-14T23:52:46.153Z,81.31
2023-02-14T23:57:47.885Z,81.17
